Time;durP1;ratioP1;P1;durP2;ratioP2;P2;SDS_P1;SDS_P2;PMS_P1;PMS_P2;Temp;Humidity;BMP_temperature;BMP_pressure;BME280_temperature;BME280_humidity;BME280_pressure;Samples;Min_cycle;Max_cycle;Signal;HPM_P1;HPM_P2
2023/03/27 00:01:22;;;;;;;1.75;1.15;;;;;;;10.84;48.98;98990.41;5074282;28;20044;-66
2023/03/27 00:03:49;;;;;;;3.28;1.20;;;;;;;10.98;48.30;98985.31;5074344;28;20028;-69
2023/03/27 00:06:17;;;;;;;1.48;1.05;;;;;;;11.25;47.51;98982.00;5075026;28;20084;-69
2023/03/27 00:08:49;;;;;;;2.85;1.13;;;;;;;11.15;47.37;98981.47;5074551;28;20108;-69
2023/03/27 00:11:15;;;;;;;3.30;1.30;;;;;;;11.26;47.33;98972.22;5074420;28;20032;-69
2023/03/27 00:13:42;;;;;;;3.35;1.27;;;;;;;11.58;47.06;98965.69;5073476;28;20029;-65
2023/03/27 00:16:08;;;;;;;6.57;2.40;;;;;;;11.82;47.21;98968.00;5073572;28;20059;-65
2023/03/27 00:18:35;;;;;;;14.13;5.15;;;;;;;11.93;46.21;98964.84;5074190;28;20020;-69
2023/03/27 00:21:02;;;;;;;2.85;1.83;;;;;;;12.05;46.57;98973.13;5074479;28;20387;-65
2023/03/27 00:23:29;;;;;;;2.47;1.70;;;;;;;12.21;45.58;98974.69;5074691;28;20029;-69
2023/03/27 00:25:56;;;;;;;4.88;1.80;;;;;;;12.28;45.37;98972.91;5073246;28;20044;-65
2023/03/27 00:28:27;;;;;;;4.55;2.67;;;;;;;12.40;45.19;98960.75;5076678;28;20055;-70
2023/03/27 00:30:54;;;;;;;9.15;3.90;;;;;;;12.48;45.00;98957.97;5077733;28;20366;-65
2023/03/27 00:33:20;;;;;;;5.82;3.83;;;;;;;12.65;44.91;98953.22;5077980;28;20052;-64
2023/03/27 00:35:47;;;;;;;3.50;3.03;;;;;;;12.80;44.94;98956.56;5077843;28;20087;-70
2023/03/27 00:38:13;;;;;;;5.60;3.33;;;;;;;12.92;44.33;98957.66;5076925;28;20078;-69
2023/03/27 00:40:42;;;;;;;7.95;4.03;;;;;;;13.01;44.59;98955.66;5077921;28;20385;-66
2023/03/27 00:43:23;;;;;;;8.90;4.30;;;;;;;12.81;45.50;98960.88;5077246;28;20095;-69
2023/03/27 00:45:55;;;;;;;7.15;4.40;;;;;;;12.63;45.82;98958.72;5078419;28;20040;-65
2023/03/27 00:48:23;;;;;;;7.35;4.28;;;;;;;12.70;46.24;98954.25;5078504;28;20378;-69
2023/03/27 00:50:50;;;;;;;5.53;3.72;;;;;;;12.78;45.85;98959.41;5077990;28;20028;-70
2023/03/27 00:53:21;;;;;;;6.30;4.25;;;;;;;12.82;45.88;98957.19;5077252;28;20039;-69
2023/03/27 00:55:50;;;;;;;8.02;4.13;;;;;;;12.74;46.51;98952.84;5078035;28;20028;-70
2023/03/27 00:58:21;;;;;;;11.25;5.57;;;;;;;12.76;46.79;98936.72;5078036;28;20212;-70
2023/03/27 01:00:51;;;;;;;8.73;6.10;;;;;;;12.76;46.91;98926.09;5076422;28;20342;-66
2023/03/27 01:03:19;;;;;;;17.75;7.13;;;;;;;12.76;46.76;98928.75;5079106;28;20043;-69
2023/03/27 01:05:46;;;;;;;97.10;30.45;;;;;;;12.80;46.52;98922.03;5076952;28;20071;-69
2023/03/27 01:08:13;;;;;;;19.20;8.25;;;;;;;12.79;46.62;98917.75;5076995;28;20035;-65
2023/03/27 01:10:57;;;;;;;8.10;4.45;;;;;;;12.76;46.80;98920.78;5076619;28;20075;-64
2023/03/27 01:13:43;;;;;;;8.70;4.15;;;;;;;12.75;47.01;98912.00;5077042;28;20032;-69
2023/03/27 01:16:50;;;;;;;8.38;4.95;;;;;;;12.83;46.97;98904.88;5076841;28;20067;-69
2023/03/27 01:19:51;;;;;;;7.88;3.85;;;;;;;12.73;47.36;98898.09;5069075;28;20048;-65
2023/03/27 01:22:20;;;;;;;5.15;3.10;;;;;;;12.69;46.16;98904.81;5067730;28;20238;-65
2023/03/27 01:24:54;;;;;;;5.57;2.67;;;;;;;12.21;47.69;98898.56;5074739;28;20035;-66
2023/03/27 01:27:57;;;;;;;3.47;2.50;;;;;;;12.46;47.99;98896.28;5077463;28;20230;-65
2023/03/27 01:30:33;;;;;;;5.57;3.47;;;;;;;12.29;48.71;98901.06;5075708;28;20036;-65
2023/03/27 01:33:17;;;;;;;5.88;3.03;;;;;;;12.08;48.87;98893.13;5076761;28;20049;-70
2023/03/27 01:35:58;;;;;;;9.93;3.38;;;;;;;12.02;49.01;98883.28;5077175;28;20056;-69
2023/03/27 01:38:23;;;;;;;7.30;3.90;;;;;;;11.98;48.59;98884.69;5077123;28;20033;-69
2023/03/27 01:40:51;;;;;;;4.88;3.10;;;;;;;11.92;48.92;98880.16;5075369;28;20047;-65
2023/03/27 01:43:30;;;;;;;5.70;3.10;;;;;;;11.69;49.64;98875.03;5076563;28;20024;-70
2023/03/27 01:46:20;;;;;;;9.25;3.65;;;;;;;11.60;50.67;98870.88;5076507;28;20032;-65
2023/03/27 01:48:54;;;;;;;6.73;3.60;;;;;;;11.68;50.66;98863.59;5076390;28;20040;-65
2023/03/27 01:51:29;;;;;;;5.72;3.92;;;;;;;11.89;50.30;98856.66;5077726;28;20063;-69
2023/03/27 01:54:01;;;;;;;10.52;4.03;;;;;;;11.99;50.71;98860.63;5076591;28;20245;-70
2023/03/27 01:56:32;;;;;;;8.00;4.13;;;;;;;12.06;50.76;98853.53;5075812;28;20044;-70
2023/03/27 01:59:17;;;;;;;10.55;4.40;;;;;;;12.13;50.45;98864.19;5076814;28;20203;-65
2023/03/27 02:01:53;;;;;;;11.85;4.93;;;;;;;12.09;49.92;98865.59;5076877;28;20074;-65
2023/03/27 02:04:36;;;;;;;6.22;3.25;;;;;;;12.04;49.67;98868.81;5077237;28;19919;-65
2023/03/27 02:07:07;;;;;;;7.47;2.92;;;;;;;12.14;49.31;98874.63;5077140;28;20036;-69
2023/03/27 02:09:40;;;;;;;5.03;2.88;;;;;;;12.12;48.76;98874.00;5074927;28;20039;-69
2023/03/27 02:12:15;;;;;;;7.90;4.03;;;;;;;12.00;49.85;98875.53;5075434;28;20044;-69
2023/03/27 02:14:51;;;;;;;7.53;3.30;;;;;;;11.95;50.29;98869.97;5075862;28;20036;-65
2023/03/27 02:17:20;;;;;;;5.75;3.10;;;;;;;11.84;50.26;98870.50;5076366;28;20403;-69
2023/03/27 02:19:55;;;;;;;9.80;3.78;;;;;;;11.97;48.89;98864.47;5075420;28;20090;-65
2023/03/27 02:22:21;;;;;;;6.50;2.83;;;;;;;12.18;48.72;98861.78;5075892;28;20071;-69
2023/03/27 02:24:47;;;;;;;5.53;3.45;;;;;;;12.10;48.34;98859.28;5075887;28;20045;-65
2023/03/27 02:27:31;;;;;;;5.47;2.97;;;;;;;12.20;48.27;98850.97;5074911;28;20059;-70
2023/03/27 02:30:16;;;;;;;26.48;8.35;;;;;;;12.00;49.15;98854.31;5074871;28;20361;-66
2023/03/27 02:32:42;;;;;;;8.10;3.70;;;;;;;12.12;48.56;98847.44;5075547;28;20044;-66
2023/03/27 02:35:33;;;;;;;7.38;3.45;;;;;;;12.23;48.27;98842.63;5076816;28;20371;-65
2023/03/27 02:38:24;;;;;;;13.82;5.85;;;;;;;12.17;48.18;98840.75;5075862;28;20044;-64
2023/03/27 02:41:08;;;;;;;15.73;5.38;;;;;;;12.07;47.24;98843.75;5075218;28;20048;-70
2023/03/27 02:43:43;;;;;;;4.22;2.10;;;;;;;12.09;47.71;98845.19;5074633;28;20032;-67
2023/03/27 02:46:34;;;;;;;2.10;1.58;;;;;;;12.08;47.81;98832.94;5077033;28;20362;-69
2023/03/27 02:49:08;;;;;;;44.08;16.92;;;;;;;11.89;47.63;98825.66;5076131;28;20051;-67
2023/03/27 02:51:50;;;;;;;3.58;2.00;;;;;;;11.63;48.16;98818.28;5074746;28;20187;-65
2023/03/27 02:54:21;;;;;;;2.75;1.55;;;;;;;11.74;49.11;98811.63;5075875;28;20047;-70
2023/03/27 02:56:51;;;;;;;8.05;3.17;;;;;;;11.83;49.15;98821.94;5074833;28;20064;-70
2023/03/27 02:59:51;;;;;;;7.95;3.00;;;;;;;11.94;48.94;98822.41;5074686;28;20078;-65
2023/03/27 03:02:21;;;;;;;11.05;4.45;;;;;;;11.87;49.18;98816.25;5070900;28;20317;-70
2023/03/27 03:04:56;;;;;;;40.03;11.45;;;;;;;11.89;49.90;98817.69;5074403;28;20086;-69
2023/03/27 03:07:25;;;;;;;16.08;5.82;;;;;;;11.68;50.24;98810.56;5073828;28;20048;-70
2023/03/27 03:09:52;;;;;;;11.98;4.40;;;;;;;11.72;50.07;98805.69;5075604;28;20242;-65
2023/03/27 03:12:17;;;;;;;5.93;3.50;;;;;;;11.57;50.16;98813.72;5075321;28;20032;-69
2023/03/27 03:14:43;;;;;;;4.05;2.03;;;;;;;11.48;50.18;98807.75;5075393;28;20031;-69
2023/03/27 03:17:09;;;;;;;12.20;5.28;;;;;;;11.59;50.10;98801.09;5074636;28;20032;-65
2023/03/27 03:19:35;;;;;;;3.97;2.28;;;;;;;11.41;50.24;98801.53;5075436;28;20020;-69
2023/03/27 03:22:01;;;;;;;6.82;3.60;;;;;;;11.29;50.40;98800.41;5074422;28;20278;-69
2023/03/27 03:24:28;;;;;;;7.38;3.45;;;;;;;11.31;50.84;98805.50;5075009;28;20099;-70
2023/03/27 03:26:53;;;;;;;5.50;2.35;;;;;;;11.55;50.78;98814.94;5076319;28;20033;-69
2023/03/27 03:29:19;;;;;;;4.85;2.42;;;;;;;11.69;50.44;98811.38;5073954;28;20028;-69
2023/03/27 03:31:44;;;;;;;3.63;2.10;;;;;;;11.85;50.34;98810.31;5074435;28;20046;-65
2023/03/27 03:34:17;;;;;;;2.50;1.92;;;;;;;11.87;50.16;98793.19;5075036;28;20097;-70
2023/03/27 03:36:47;;;;;;;2.65;1.92;;;;;;;11.83;50.19;98791.94;5076262;28;20456;-70
2023/03/27 03:39:14;;;;;;;3.35;2.10;;;;;;;11.68;50.30;98776.09;5072089;28;20036;-65
2023/03/27 03:41:40;;;;;;;5.07;2.45;;;;;;;11.59;50.07;98777.25;5075051;28;20087;-69
2023/03/27 03:44:06;;;;;;;4.72;2.40;;;;;;;11.59;50.34;98766.63;5074111;28;20028;-66
2023/03/27 03:46:32;;;;;;;5.18;2.30;;;;;;;11.59;50.92;98766.63;5077529;28;20036;-65
2023/03/27 03:48:58;;;;;;;4.75;2.42;;;;;;;11.61;50.28;98767.25;5075965;28;20036;-66
2023/03/27 03:51:24;;;;;;;8.48;4.05;;;;;;;11.56;50.25;98767.03;5075060;28;20052;-66
2023/03/27 03:53:49;;;;;;;7.25;3.45;;;;;;;11.34;50.90;98771.50;5073904;28;20035;-66
2023/03/27 03:56:15;;;;;;;10.63;3.25;;;;;;;11.14;51.70;98762.53;5074437;28;20044;-65
2023/03/27 03:58:40;;;;;;;11.77;5.75;;;;;;;10.99;52.28;98767.91;5076003;28;20024;-70
2023/03/27 04:01:07;;;;;;;11.32;5.07;;;;;;;10.64;53.58;98769.56;5075413;28;20045;-70
2023/03/27 04:03:33;;;;;;;18.88;8.00;;;;;;;10.26;54.53;98763.56;5078064;28;20085;-66
2023/03/27 04:06:06;;;;;;;16.15;7.40;;;;;;;10.38;54.66;98769.22;5079518;28;20033;-69
2023/03/27 04:08:34;;;;;;;40.00;13.73;;;;;;;10.60;53.87;98763.00;5078233;28;20040;-69
2023/03/27 04:11:00;;;;;;;11.65;5.10;;;;;;;10.84;52.79;98756.53;5079754;28;20047;-65
2023/03/27 04:13:25;;;;;;;13.35;6.43;;;;;;;10.95;52.08;98744.63;5078071;28;20028;-69
2023/03/27 04:15:51;;;;;;;10.27;3.70;;;;;;;11.03;52.36;98763.88;5078754;28;20040;-66
2023/03/27 04:18:18;;;;;;;11.35;5.05;;;;;;;11.05;52.17;98777.75;5077720;28;20047;-69
2023/03/27 04:20:48;;;;;;;11.27;4.80;;;;;;;10.98;52.37;98776.03;5080068;28;20032;-70
2023/03/27 04:23:17;;;;;;;18.85;7.22;;;;;;;11.03;51.97;98758.56;5080461;28;20095;-65
2023/03/27 04:25:45;;;;;;;5.90;3.28;;;;;;;11.14;51.71;98751.94;5079297;28;20358;-65
2023/03/27 04:28:15;;;;;;;8.15;3.33;;;;;;;10.82;52.42;98746.13;5079831;28;20044;-70
2023/03/27 04:30:42;;;;;;;7.60;3.85;;;;;;;10.76;52.75;98743.41;5080316;28;20028;-65
2023/03/27 04:33:17;;;;;;;4.78;2.95;;;;;;;10.78;51.99;98741.41;5080030;28;20032;-65
2023/03/27 04:35:46;;;;;;;4.35;2.80;;;;;;;10.44;52.31;98739.41;5079738;28;20246;-70
2023/03/27 04:38:13;;;;;;;3.97;2.50;;;;;;;10.37;52.44;98741.94;5079858;28;20024;-69
2023/03/27 04:40:44;;;;;;;3.20;2.20;;;;;;;10.57;52.16;98741.38;5079325;28;20032;-65
2023/03/27 04:43:10;;;;;;;3.63;1.90;;;;;;;10.71;52.45;98743.97;5081085;28;20036;-65
2023/03/27 04:45:37;;;;;;;5.13;2.40;;;;;;;10.78;52.47;98750.16;5080453;28;20075;-66
2023/03/27 04:48:04;;;;;;;7.03;2.78;;;;;;;10.61;53.13;98745.28;5081095;28;20036;-69
2023/03/27 04:50:30;;;;;;;8.07;3.22;;;;;;;10.78;53.41;98750.16;5081519;28;20082;-68
2023/03/27 04:53:00;;;;;;;7.68;4.50;;;;;;;10.84;53.34;98751.25;5081006;28;20041;-66
2023/03/27 04:55:26;;;;;;;17.10;5.80;;;;;;;11.14;53.69;98746.66;5080655;28;20058;-65
2023/03/27 04:57:53;;;;;;;8.98;4.97;;;;;;;11.29;53.36;98751.88;5080711;28;20253;-65
2023/03/27 05:00:21;;;;;;;8.05;3.50;;;;;;;11.35;54.31;98743.16;5080065;28;20032;-63
2023/03/27 05:02:51;;;;;;;4.28;2.50;;;;;;;11.40;55.00;98738.94;5076634;28;20042;-70
2023/03/27 05:05:17;;;;;;;3.85;2.53;;;;;;;11.16;55.33;98742.81;5080317;28;20385;-66
2023/03/27 05:07:47;;;;;;;3.95;2.55;;;;;;;10.94;55.23;98732.41;5079752;28;20410;-70
2023/03/27 05:10:14;;;;;;;4.78;3.03;;;;;;;11.13;55.24;98737.88;5079843;28;20355;-65
2023/03/27 05:12:47;;;;;;;4.80;3.03;;;;;;;11.41;54.74;98726.50;5080276;28;20044;-69
2023/03/27 05:15:14;;;;;;;5.95;3.33;;;;;;;11.61;54.05;98729.31;5079391;28;20045;-65
2023/03/27 05:17:42;;;;;;;7.22;3.70;;;;;;;11.79;54.19;98737.63;5080051;28;20046;-69
2023/03/27 05:20:11;;;;;;;5.63;3.60;;;;;;;11.99;55.08;98738.59;5080797;28;20033;-66
2023/03/27 05:22:37;;;;;;;6.05;4.00;;;;;;;12.13;54.30;98742.13;5080760;28;20268;-65
2023/03/27 05:25:03;;;;;;;6.45;3.63;;;;;;;12.25;54.21;98747.69;5079587;28;20089;-65
2023/03/27 05:27:28;;;;;;;6.90;3.85;;;;;;;12.50;52.82;98730.28;5080479;28;20108;-65
2023/03/27 05:29:54;;;;;;;7.03;4.10;;;;;;;12.34;53.04;98734.06;5080037;28;20238;-66
2023/03/27 05:32:20;;;;;;;9.82;6.63;;;;;;;12.27;55.16;98719.13;5080332;28;20036;-70
2023/03/27 05:34:49;;;;;;;8.85;5.80;;;;;;;12.51;54.12;98710.66;5080637;28;20234;-66
2023/03/27 05:37:15;;;;;;;12.43;6.53;;;;;;;12.46;54.10;98713.88;5080441;28;20060;-65
2023/03/27 05:39:40;;;;;;;10.30;5.88;;;;;;;12.43;54.46;98703.66;5079511;28;20116;-66
2023/03/27 05:42:06;;;;;;;9.90;6.40;;;;;;;12.33;55.60;98695.25;5080272;28;20089;-69
2023/03/27 05:44:31;;;;;;;9.80;5.68;;;;;;;12.55;54.49;98703.94;5080425;28;20081;-66
2023/03/27 05:46:58;;;;;;;9.73;6.47;;;;;;;12.92;54.79;98699.94;5079852;28;20028;-70
2023/03/27 05:49:23;;;;;;;9.65;6.70;;;;;;;13.26;53.75;98704.28;5078159;28;20044;-70
2023/03/27 05:51:49;;;;;;;9.77;6.15;;;;;;;13.50;53.88;98707.34;5079732;28;20234;-65
2023/03/27 05:54:15;;;;;;;12.05;7.07;;;;;;;13.80;53.70;98699.75;5078767;28;20055;-70
2023/03/27 05:56:40;;;;;;;8.75;6.10;;;;;;;14.13;52.81;98708.47;5079760;28;20048;-70
2023/03/27 05:59:06;;;;;;;10.52;7.32;;;;;;;14.33;52.85;98690.56;5078387;28;20040;-69
2023/03/27 06:01:34;;;;;;;10.52;7.35;;;;;;;14.18;53.88;98702.50;5080225;28;20043;-65
2023/03/27 06:04:00;;;;;;;10.13;7.15;;;;;;;13.65;56.03;98694.66;5079540;28;20036;-65
2023/03/27 06:06:26;;;;;;;13.90;8.32;;;;;;;13.70;58.29;98685.03;5078852;28;20266;-70
2023/03/27 06:08:52;;;;;;;16.98;9.05;;;;;;;13.41;59.37;98690.78;5078819;28;20090;-65
2023/03/27 06:11:17;;;;;;;15.95;9.13;;;;;;;13.26;60.81;98674.22;5078656;28;20036;-65
2023/03/27 06:13:43;;;;;;;14.00;8.95;;;;;;;13.03;62.89;98688.69;5078539;28;20032;-69
2023/03/27 06:16:09;;;;;;;15.23;9.02;;;;;;;12.93;63.70;98682.97;5078209;28;20115;-69
2023/03/27 06:18:34;;;;;;;15.48;9.52;;;;;;;12.86;63.57;98679.47;5076402;28;20288;-69
2023/03/27 06:21:00;;;;;;;15.27;9.98;;;;;;;12.80;65.70;98680.28;5076872;28;20276;-70
2023/03/27 06:23:26;;;;;;;16.50;9.40;;;;;;;12.66;65.82;98673.31;5077250;28;20082;-69
2023/03/27 06:25:51;;;;;;;14.88;9.50;;;;;;;12.66;67.47;98671.47;5076023;28;20028;-69
2023/03/27 06:28:18;;;;;;;15.20;9.32;;;;;;;12.36;68.54;98670.97;5077655;28;20039;-69
2023/03/27 06:30:45;;;;;;;18.80;10.02;;;;;;;12.13;70.28;98676.59;5077670;28;20048;-70
2023/03/27 06:33:11;;;;;;;17.55;10.10;;;;;;;11.94;72.35;98668.56;5077693;28;20261;-65
2023/03/27 06:35:38;;;;;;;14.95;9.70;;;;;;;12.14;72.32;98672.94;5077547;28;20059;-69
2023/03/27 06:38:05;;;;;;;17.52;9.73;;;;;;;12.04;72.99;98675.13;5077292;28;20036;-69
2023/03/27 06:40:34;;;;;;;16.38;9.45;;;;;;;12.02;73.62;98674.50;5076506;28;20032;-66
2023/03/27 06:43:02;;;;;;;19.10;10.68;;;;;;;12.04;74.02;98661.88;5076440;28;20028;-65
2023/03/27 06:45:34;;;;;;;15.20;9.55;;;;;;;11.76;76.47;98677.81;5077453;28;20261;-69
2023/03/27 06:48:02;;;;;;;16.10;10.43;;;;;;;11.80;77.46;98673.78;5077519;28;20051;-65
2023/03/27 06:50:29;;;;;;;16.67;9.82;;;;;;;11.83;75.64;98657.50;5077846;28;20039;-66
2023/03/27 06:52:55;;;;;;;16.10;10.77;;;;;;;11.65;76.48;98651.03;5076673;28;20041;-64
2023/03/27 06:55:22;;;;;;;18.05;11.10;;;;;;;11.88;76.07;98656.06;5077041;28;20373;-69
2023/03/27 06:57:50;;;;;;;18.50;11.07;;;;;;;11.88;76.60;98629.56;5076206;28;20111;-69
2023/03/27 07:00:18;;;;;;;17.40;10.27;;;;;;;11.90;76.03;98622.22;5077123;28;20047;-66
2023/03/27 07:02:53;;;;;;;16.45;10.60;;;;;;;11.82;76.81;98637.28;5076730;28;20032;-64
2023/03/27 07:05:19;;;;;;;19.55;12.77;;;;;;;12.35;75.96;98632.16;5077049;28;20288;-70
2023/03/27 07:07:45;;;;;;;21.77;11.52;;;;;;;12.68;73.45;98615.50;5076835;28;20089;-69
2023/03/27 07:10:12;;;;;;;18.75;11.55;;;;;;;12.93;71.50;98623.69;5076322;28;20056;-66
2023/03/27 07:12:39;;;;;;;19.65;11.65;;;;;;;13.29;70.37;98613.47;5076763;28;20245;-67
2023/03/27 07:15:05;;;;;;;18.40;12.68;;;;;;;13.39;69.35;98592.59;5076310;28;20059;-66
2023/03/27 07:17:32;;;;;;;26.58;15.38;;;;;;;13.27;69.94;98594.25;5075786;28;20056;-70
2023/03/27 07:19:57;;;;;;;22.33;14.32;;;;;;;13.07;69.96;98583.63;5075423;28;20043;-65
2023/03/27 07:22:23;;;;;;;19.58;12.05;;;;;;;12.84;71.80;98556.66;5076212;28;20257;-65
2023/03/27 07:24:48;;;;;;;19.50;10.95;;;;;;;13.31;70.11;98554.78;5076386;28;20269;-70
2023/03/27 07:27:15;;;;;;;19.02;11.68;;;;;;;13.84;68.36;98550.13;5075853;28;20411;-65
2023/03/27 07:29:41;;;;;;;16.65;11.13;;;;;;;14.44;66.23;98545.28;5075443;28;20028;-65
2023/03/27 07:32:06;;;;;;;18.55;11.10;;;;;;;14.61;64.35;98521.63;5075560;28;20393;-69
2023/03/27 07:34:32;;;;;;;16.85;11.73;;;;;;;14.50;65.04;98507.13;5075582;28;20040;-69
2023/03/27 07:36:58;;;;;;;20.02;11.38;;;;;;;13.86;68.52;98492.19;5075188;28;20036;-70
2023/03/27 07:39:24;;;;;;;19.65;12.55;;;;;;;14.01;68.19;98482.06;5076197;28;20048;-65
2023/03/27 07:41:51;;;;;;;19.67;12.40;;;;;;;13.70;68.86;98453.59;5076960;28;20234;-65
2023/03/27 07:44:17;;;;;;;19.75;12.52;;;;;;;13.42;71.16;98459.22;5076321;28;20028;-65
2023/03/27 07:46:43;;;;;;;20.05;11.70;;;;;;;13.17;71.82;98452.19;5075219;28;20043;-69
2023/03/27 07:49:09;;;;;;;21.67;13.93;;;;;;;12.90;73.95;98436.28;5075569;28;20043;-69
2023/03/27 07:51:35;;;;;;;19.70;12.10;;;;;;;12.78;75.70;98417.53;5075522;28;20387;-69
2023/03/27 07:54:03;;;;;;;21.88;13.45;;;;;;;12.90;75.58;98420.34;5075097;28;20373;-66
2023/03/27 07:56:31;;;;;;;20.17;12.05;;;;;;;12.90;74.59;98412.38;5075698;28;20107;-66
2023/03/27 07:58:56;;;;;;;21.50;12.73;;;;;;;12.84;76.60;98407.09;5075360;28;20118;-65
2023/03/27 08:01:24;;;;;;;20.77;10.77;;;;;;;13.07;75.49;98394.13;5074079;28;20042;-64
2023/03/27 08:03:50;;;;;;;22.15;12.88;;;;;;;13.30;74.91;98391.00;5069591;28;20881;-65
2023/03/27 08:06:16;;;;;;;21.35;11.88;;;;;;;13.27;76.97;98386.91;5067911;28;20334;-69
2023/03/27 08:08:42;;;;;;;20.25;12.70;;;;;;;13.43;76.42;98367.00;5069562;28;20043;-65
2023/03/27 08:11:07;;;;;;;19.13;11.75;;;;;;;13.63;75.37;98372.22;5068165;28;20043;-69
2023/03/27 08:13:33;;;;;;;17.23;11.70;;;;;;;13.91;74.25;98361.97;5067956;28;20029;-69
2023/03/27 08:16:06;;;;;;;19.25;11.70;;;;;;;14.09;74.32;98355.88;5068194;28;20354;-66
2023/03/27 08:18:32;;;;;;;20.48;13.15;;;;;;;14.56;73.68;98349.09;5067865;28;20246;-66
2023/03/27 08:21:00;;;;;;;20.38;12.57;;;;;;;14.49;75.33;98348.38;5068303;28;20051;-69
2023/03/27 08:23:26;;;;;;;21.20;13.70;;;;;;;14.78;75.69;98352.16;5066995;28;20032;-70
2023/03/27 08:25:52;;;;;;;23.92;13.63;;;;;;;14.90;76.23;98342.38;5069360;28;20049;-65
2023/03/27 08:28:18;;;;;;;24.13;14.43;;;;;;;14.97;77.56;98327.13;5067401;28;20378;-65
2023/03/27 08:30:45;;;;;;;22.77;13.60;;;;;;;15.01;76.26;98327.50;5069691;28;20036;-65
2023/03/27 08:33:10;;;;;;;25.42;14.52;;;;;;;15.02;76.57;98327.28;5067837;28;20064;-69
2023/03/27 08:35:36;;;;;;;25.23;13.95;;;;;;;15.21;78.17;98317.38;5067601;28;20290;-65
2023/03/27 08:38:01;;;;;;;27.40;14.90;;;;;;;15.43;79.15;98309.69;5066868;28;20032;-69
2023/03/27 08:40:30;;;;;;;26.55;13.82;;;;;;;15.52;75.70;98300.31;5070143;28;20024;-66
2023/03/27 08:43:02;;;;;;;25.50;15.88;;;;;;;15.62;75.95;98286.47;5066745;28;20040;-70
2023/03/27 08:45:36;;;;;;;22.80;13.85;;;;;;;16.05;75.55;98285.34;5069338;28;20032;-66
2023/03/27 08:48:14;;;;;;;21.65;13.27;;;;;;;16.37;76.23;98281.25;5068388;28;20377;-70
2023/03/27 08:50:45;;;;;;;19.77;12.88;;;;;;;16.61;74.19;98261.44;5070247;28;20078;-67
2023/03/27 08:53:39;;;;;;;21.63;12.35;;;;;;;16.92;72.32;98259.41;5070342;28;20130;-64
2023/03/27 08:56:05;;;;;;;18.48;11.88;;;;;;;17.08;69.25;98257.84;5072020;28;20576;-67
2023/03/27 08:58:33;;;;;;;17.73;12.52;;;;;;;17.35;70.61;98250.00;5072668;28;20281;-67
2023/03/27 09:01:17;;;;;;;14.02;10.38;;;;;;;17.72;68.30;98239.69;5071126;28;20052;-67
2023/03/27 09:03:52;;;;;;;9.45;6.55;;;;;;;17.84;61.92;98238.56;5072925;28;20034;-65
2023/03/27 09:06:18;;;;;;;7.78;5.70;;;;;;;18.01;55.79;98235.03;5072071;28;20044;-64
2023/03/27 09:08:56;;;;;;;7.97;4.78;;;;;;;18.29;58.41;98226.03;5070658;28;20028;-70
2023/03/27 09:11:36;;;;;;;6.63;4.55;;;;;;;18.46;53.02;98210.69;5070806;28;20066;-66
2023/03/27 09:14:26;;;;;;;5.20;3.72;;;;;;;18.68;54.45;98206.16;5069662;28;20110;-70
2023/03/27 09:16:55;;;;;;;4.82;3.30;;;;;;;18.93;50.28;98208.34;5071982;28;20036;-66
2023/03/27 09:19:27;;;;;;;5.93;4.18;;;;;;;19.10;48.62;98205.53;5072234;28;20326;-70
2023/03/27 09:22:01;;;;;;;3.35;2.60;;;;;;;19.18;46.03;98180.13;5070613;28;20043;-70
2023/03/27 09:24:32;;;;;;;;;;;;;;;19.47;45.25;98165.31;5071256;28;20111;-69
2023/03/27 09:27:10;;;;;;;5.47;3.17;;;;;;;19.35;46.74;98170.06;5071620;28;19931;-66
2023/03/27 09:29:40;;;;;;;6.00;3.45;;;;;;;19.40;46.47;98157.50;5070962;28;20066;-66
2023/03/27 09:32:12;;;;;;;5.93;3.80;;;;;;;19.55;48.26;98148.75;5072746;28;20033;-70
2023/03/27 09:34:38;;;;;;;4.50;3.10;;;;;;;19.76;43.77;98142.44;5071273;28;20317;-70
2023/03/27 09:37:10;;;;;;;3.95;3.35;;;;;;;19.96;44.85;98127.53;5070041;28;20082;-66
2023/03/27 09:39:39;;;;;;;5.85;4.05;;;;;;;20.21;43.28;98134.88;5070612;28;20259;-65
2023/03/27 09:42:15;;;;;;;4.47;4.05;;;;;;;20.29;46.00;98129.00;5071152;28;20048;-66
2023/03/27 09:44:43;;;;;;;5.43;3.38;;;;;;;20.43;44.62;98132.03;5070371;28;20325;-66
2023/03/27 09:47:14;;;;;;;4.43;3.15;;;;;;;20.54;40.15;98139.84;5072071;28;20060;-65
2023/03/27 09:49:46;;;;;;;3.67;3.38;;;;;;;20.49;40.45;98133.66;5071018;28;20036;-68
2023/03/27 09:52:35;;;;;;;3.83;3.40;;;;;;;20.62;42.46;98128.59;5071018;28;20033;-70
2023/03/27 09:55:01;;;;;;;3.80;3.42;;;;;;;20.76;40.73;98131.56;5073812;28;20028;-70
2023/03/27 09:57:33;;;;;;;3.70;3.35;;;;;;;20.89;38.71;98136.44;5078384;28;20058;-67
2023/03/27 10:00:23;;;;;;;4.18;3.25;;;;;;;21.03;39.51;98132.16;5078499;28;20036;-67
2023/03/27 10:03:12;;;;;;;4.65;3.10;;;;;;;21.06;39.20;98130.81;5076899;28;20068;-70
2023/03/27 10:05:38;;;;;;;4.72;3.40;;;;;;;21.07;39.51;98129.72;5077170;28;20047;-67
2023/03/27 10:08:24;;;;;;;5.13;3.40;;;;;;;21.01;38.90;98128.13;5077571;28;20041;-67
2023/03/27 10:11:05;;;;;;;4.68;3.47;;;;;;;20.98;38.56;98126.78;5077413;28;20051;-66
2023/03/27 10:13:30;;;;;;;3.38;3.08;;;;;;;20.92;39.72;98124.34;5077794;28;20353;-70
2023/03/27 10:16:04;;;;;;;5.20;3.85;;;;;;;20.89;40.69;98132.94;5078097;28;20045;-70
2023/03/27 10:18:33;;;;;;;4.65;3.42;;;;;;;20.84;40.40;98127.56;5078558;28;20044;-66
2023/03/27 10:21:05;;;;;;;6.57;3.85;;;;;;;20.80;41.05;98118.38;5077366;28;20390;-70
2023/03/27 10:23:43;;;;;;;12.75;8.35;;;;;;;20.73;45.81;98115.97;5077291;28;20052;-70
2023/03/27 10:26:12;;;;;;;15.52;10.75;;;;;;;20.70;49.42;98111.91;5077305;28;20336;-70
2023/03/27 10:28:44;;;;;;;17.92;10.65;;;;;;;20.62;51.49;98111.63;5076654;28;20318;-66
2023/03/27 10:31:28;;;;;;;16.77;10.02;;;;;;;20.56;50.64;98110.81;5075857;28;20031;-70
2023/03/27 10:33:56;;;;;;;15.65;10.35;;;;;;;20.51;49.43;98108.13;5074401;28;20349;-70
2023/03/27 10:36:23;;;;;;;16.13;10.75;;;;;;;20.31;50.62;98108.03;5076390;28;20090;-70
2023/03/27 10:38:57;;;;;;;20.55;12.10;;;;;;;20.14;51.51;98104.75;5076112;28;20131;-66
2023/03/27 10:41:23;;;;;;;18.60;12.23;;;;;;;20.02;52.21;98103.13;5076466;28;20318;-70
2023/03/27 10:43:50;;;;;;;18.35;11.02;;;;;;;19.97;52.70;98099.59;5074924;28;20530;-66
2023/03/27 10:46:20;;;;;;;19.00;12.02;;;;;;;19.95;52.89;98094.50;5074480;28;20047;-66
2023/03/27 10:49:03;;;;;;;16.02;10.32;;;;;;;19.97;52.44;98081.59;5075079;28;20040;-70
2023/03/27 10:51:46;;;;;;;15.07;9.95;;;;;;;19.96;52.19;98079.97;5076361;28;20300;-67
2023/03/27 10:54:23;;;;;;;;;;;;;;;19.97;52.39;98075.41;5074869;28;20051;-67
2023/03/27 10:57:12;;;;;;;15.07;9.48;;;;;;;19.96;52.81;98063.88;5076188;28;19981;-67
2023/03/27 11:00:00;;;;;;;15.68;10.02;;;;;;;20.04;52.87;98070.59;5077064;28;20118;-70
2023/03/27 11:02:38;;;;;;;13.07;9.55;;;;;;;20.07;52.47;98067.41;5074779;28;20042;-70
2023/03/27 11:05:12;;;;;;;14.48;9.55;;;;;;;20.07;51.97;98062.03;5072233;28;20039;-70
2023/03/27 11:07:48;;;;;;;20.80;11.13;;;;;;;20.09;52.55;98066.06;5071209;28;20044;-67
2023/03/27 11:10:36;;;;;;;14.93;9.25;;;;;;;20.11;52.18;98054.25;5069329;28;20040;-67
2023/03/27 11:13:13;;;;;;;15.18;9.38;;;;;;;20.12;52.31;98039.72;5067821;28;20405;-70
2023/03/27 11:15:42;;;;;;;15.63;9.25;;;;;;;20.22;51.69;98031.69;5069188;28;20062;-67
2023/03/27 11:18:36;;;;;;;13.65;9.05;;;;;;;20.28;53.14;98026.06;5072378;28;20139;-70
2023/03/27 11:21:06;;;;;;;11.68;7.65;;;;;;;20.34;51.88;98016.94;5072701;28;20056;-66
2023/03/27 11:23:53;;;;;;;9.80;6.80;;;;;;;20.51;51.88;98007.84;5073600;28;20033;-66
2023/03/27 11:26:22;;;;;;;11.25;8.05;;;;;;;20.68;51.84;97989.53;5071981;28;20078;-70
2023/03/27 11:28:53;;;;;;;10.80;7.60;;;;;;;20.70;51.09;97968.56;5068520;28;20413;-70
2023/03/27 11:31:44;;;;;;;8.48;6.43;;;;;;;20.59;48.67;97959.69;5070686;28;20064;-66
2023/03/27 11:34:29;;;;;;;5.28;4.35;;;;;;;20.48;47.94;97958.09;5070616;28;20122;-70
2023/03/27 11:37:10;;;;;;;7.97;4.75;;;;;;;20.47;46.37;97942.22;5071086;28;20111;-70
2023/03/27 11:39:51;;;;;;;4.93;3.97;;;;;;;20.50;46.87;97931.75;5071530;28;20028;-67
2023/03/27 11:42:26;;;;;;;5.32;3.63;;;;;;;20.50;41.24;97920.19;5069625;28;20040;-70
2023/03/27 11:44:52;;;;;;;6.28;3.90;;;;;;;20.55;41.29;97920.19;5070622;28;20731;-67